Alicia, Arkansas
Current Conditions -  °F | °C
As of 2:07 AM on Friday 19 Dec 2014 (Local Time) from KM19 Reporting Station
Haze Haze  
Wind Chill:   Ceiling: 4000
Heat Index:   Visibility: 6mi
Dew Point:   Wind: 13mph
Humidity: 93%   Direction: 30°NNE
Pressure: 30.25"   Gusts: NA
Location:  35.89°N, 91.08°W
Report Text: KM19 190807Z AUTO 03011KT 6SM BR SCT007 OVC040 04/03 A3025 RMK AO2
Loading
Personal Weather Stations






























Interactive Weather Map New forecast layout! Learn more

10-Day Weather Forecast

Advertisements
Track Severe Weather on mobile